Brading, United Kingdom
Current Conditions -  °F | °C
As of 10:20 PM on Thursday 27 Nov 2014 (Local Time) from EGHI Reporting Station
Few Clouds Few Clouds  
Wind Chill: 43°   Ceiling: Unl
Heat Index: 46°   Visibility: 6mi
Dew Point: 45°   Wind: 7mph
Humidity: 93%   Direction: 120°ESE
Pressure: 29.53"   Gusts: NA
Location:  50.68°N, 1.14°W
Report Text: EGHI 272220Z 12006KT 9999 FEW022 08/07 Q1000
Loading
Personal Weather Stations






























Interactive Weather Map New forecast layout! Learn more

10-Day Weather Forecast

Advertisements
Track Severe Weather on mobile